Indiaroba, Brazil
Current Conditions -  °F | °C
As of 7:00 AM on Sunday 21 Dec 2014 (Local Time) from SBAR Reporting Station
Scattered Clouds Scattered Clouds  
Wind Chill: 81°   Ceiling: Unl
Heat Index: 85°   Visibility: 6mi
Dew Point: 72°   Wind: 8mph
Humidity: 74%   Direction: 100°E
Pressure: 29.97"   Gusts: NA
Location:  11.52°S, 37.51°W
Report Text: SBAR 211000Z 10007KT 9999 SCT015 SCT100 27/22 Q1015
Loading
Personal Weather Stations






























Interactive Weather Map New forecast layout! Learn more

10-Day Weather Forecast

Advertisements
Track Severe Weather on mobile